sensor_id;sensor_type;location;lat;lon;timestamp;pressure;altitude;pressure_sealevel;temperature;humidity
4398;BME280;2213;49.720;7.296;2023-08-06T00:00:22;97130.41;;;16.32;100.00
4398;BME280;2213;49.720;7.296;2023-08-06T00:02:53;97135.44;;;16.33;100.00
4398;BME280;2213;49.720;7.296;2023-08-06T00:05:24;97128.03;;;16.30;100.00
4398;BME280;2213;49.720;7.296;2023-08-06T00:07:53;97122.19;;;16.28;100.00
4398;BME280;2213;49.720;7.296;2023-08-06T00:10:23;97120.63;;;16.27;100.00
4398;BME280;2213;49.720;7.296;2023-08-06T00:12:54;97114.03;;;16.30;100.00
4398;BME280;2213;49.720;7.296;2023-08-06T00:15:23;97110.59;;;16.29;100.00
4398;BME280;2213;49.720;7.296;2023-08-06T00:17:54;97112.94;;;16.26;100.00
4398;BME280;2213;49.720;7.296;2023-08-06T00:20:24;97105.28;;;16.24;100.00
4398;BME280;2213;49.720;7.296;2023-08-06T00:22:54;97100.47;;;16.21;100.00
4398;BME280;2213;49.720;7.296;2023-08-06T00:25:24;97108.94;;;16.23;100.00
4398;BME280;2213;49.720;7.296;2023-08-06T00:27:53;97098.41;;;16.23;100.00
4398;BME280;2213;49.720;7.296;2023-08-06T00:30:22;97108.94;;;16.23;100.00
4398;BME280;2213;49.720;7.296;2023-08-06T00:32:52;97098.63;;;16.22;100.00
4398;BME280;2213;49.720;7.296;2023-08-06T00:35:24;97101.25;;;16.22;100.00
4398;BME280;2213;49.720;7.296;2023-08-06T00:37:52;97104.97;;;16.21;100.00
4398;BME280;2213;49.720;7.296;2023-08-06T00:40:23;97096.78;;;16.22;100.00
4398;BME280;2213;49.720;7.296;2023-08-06T00:42:52;97100.47;;;16.21;100.00
4398;BME280;2213;49.720;7.296;2023-08-06T00:45:21;97105.75;;;16.21;100.00
4398;BME280;2213;49.720;7.296;2023-08-06T00:47:52;97101.75;;;16.19;100.00
4398;BME280;2213;49.720;7.296;2023-08-06T00:50:24;97099.69;;;16.21;100.00
4398;BME280;2213;49.720;7.296;2023-08-06T00:52:54;97098.09;;;16.20;100.00
4398;BME280;2213;49.720;7.296;2023-08-06T00:55:25;97092.50;;;16.16;100.00
4398;BME280;2213;49.720;7.296;2023-08-06T00:57:56;97090.41;;;16.18;100.00
4398;BME280;2213;49.720;7.296;2023-08-06T01:00:26;97096.00;;;16.22;100.00
4398;BME280;2213;49.720;7.296;2023-08-06T01:02:56;97096.19;;;16.15;100.00
4398;BME280;2213;49.720;7.296;2023-08-06T01:05:27;97096.25;;;16.20;100.00
4398;BME280;2213;49.720;7.296;2023-08-06T01:08:15;97100.47;;;16.21;100.00
4398;BME280;2213;49.720;7.296;2023-08-06T01:11:03;97099.63;;;16.16;100.00
4398;BME280;2213;49.720;7.296;2023-08-06T01:13:42;97106.22;;;16.18;100.00
4398;BME280;2213;49.720;7.296;2023-08-06T01:16:17;97096.19;;;16.15;100.00
4398;BME280;2213;49.720;7.296;2023-08-06T01:18:48;97099.69;;;16.21;100.00
4398;BME280;2213;49.720;7.296;2023-08-06T01:21:19;97092.50;;;16.16;100.00
4398;BME280;2213;49.720;7.296;2023-08-06T01:23:49;97084.59;;;16.16;100.00
4398;BME280;2213;49.720;7.296;2023-08-06T01:26:31;97090.66;;;16.17;100.00
4398;BME280;2213;49.720;7.296;2023-08-06T01:29:12;97079.56;;;16.15;100.00
4398;BME280;2213;49.720;7.296;2023-08-06T01:31:48;97077.19;;;16.13;100.00
4398;BME280;2213;49.720;7.296;2023-08-06T01:34:21;97079.81;;;16.13;100.00
4398;BME280;2213;49.720;7.296;2023-08-06T01:36:52;97073.47;;;16.14;100.00
4398;BME280;2213;49.720;7.296;2023-08-06T01:39:21;97069.81;;;16.15;100.00
4398;BME280;2213;49.720;7.296;2023-08-06T01:41:52;97070.38;;;16.17;100.00
4398;BME280;2213;49.720;7.296;2023-08-06T01:44:22;97064.22;;;16.11;100.00
4398;BME280;2213;49.720;7.296;2023-08-06T01:46:51;97060.78;;;16.11;100.00
4398;BME280;2213;49.720;7.296;2023-08-06T01:49:21;97054.66;;;16.05;100.00
4398;BME280;2213;49.720;7.296;2023-08-06T01:51:52;97053.25;;;15.98;100.00
4398;BME280;2213;49.720;7.296;2023-08-06T01:54:23;97049.81;;;15.97;100.00
4398;BME280;2213;49.720;7.296;2023-08-06T01:56:53;97045.09;;;15.99;100.00
4398;BME280;2213;49.720;7.296;2023-08-06T01:59:23;97041.91;;;15.97;100.00
4398;BME280;2213;49.720;7.296;2023-08-06T02:01:53;97043.19;;;15.95;100.00
4398;BME280;2213;49.720;7.296;2023-08-06T02:04:24;97036.81;;;15.91;100.00
4398;BME280;2213;49.720;7.296;2023-08-06T02:06:55;97040.31;;;15.96;100.00
4398;BME280;2213;49.720;7.296;2023-08-06T02:09:23;97035.28;;;15.95;100.00
4398;BME280;2213;49.720;7.296;2023-08-06T02:11:52;97036.63;;;15.97;100.00
4398;BME280;2213;49.720;7.296;2023-08-06T02:14:22;97037.91;;;15.95;100.00
4398;BME280;2213;49.720;7.296;2023-08-06T02:16:52;97040.31;;;15.96;100.00
4398;BME280;2213;49.720;7.296;2023-08-06T02:19:21;97038.41;;;15.92;100.00
4398;BME280;2213;49.720;7.296;2023-08-06T02:21:51;97032.84;;;15.88;100.00
4398;BME280;2213;49.720;7.296;2023-08-06T02:24:23;97037.63;;;15.91;100.00
4398;BME280;2213;49.720;7.296;2023-08-06T02:26:53;97041.28;;;15.90;100.00
4398;BME280;2213;49.720;7.296;2023-08-06T02:29:23;97039.94;;;15.88;100.00
4398;BME280;2213;49.720;7.296;2023-08-06T02:31:53;97036.50;;;15.87;100.00
4398;BME280;2213;49.720;7.296;2023-08-06T02:34:24;97033.31;;;15.85;100.00
4398;BME280;2213;49.720;7.296;2023-08-06T02:36:53;97032.03;;;15.88;100.00
4398;BME280;2213;49.720;7.296;2023-08-06T02:39:25;97030.44;;;15.87;100.00
4398;BME280;2213;49.720;7.296;2023-08-06T02:41:54;97021.97;;;15.85;100.00
4398;BME280;2213;49.720;7.296;2023-08-06T02:44:26;97022.97;;;15.79;100.00
4398;BME280;2213;49.720;7.296;2023-08-06T02:46:56;97020.38;;;15.84;100.00
4398;BME280;2213;49.720;7.296;2023-08-06T02:49:27;97015.38;;;15.82;100.00
4398;BME280;2213;49.720;7.296;2023-08-06T02:51:56;97018.78;;;15.83;100.00
4398;BME280;2213;49.720;7.296;2023-08-06T02:54:27;97018.47;;;15.79;100.00
4398;BME280;2213;49.720;7.296;2023-08-06T02:56:57;97018.22;;;15.81;100.00
4398;BME280;2213;49.720;7.296;2023-08-06T02:59:26;97009.72;;;15.74;100.00
4398;BME280;2213;49.720;7.296;2023-08-06T03:01:56;97007.38;;;15.77;100.00
4398;BME280;2213;49.720;7.296;2023-08-06T03:04:26;97011.03;;;15.76;100.00
4398;BME280;2213;49.720;7.296;2023-08-06T03:06:57;97012.91;;;15.76;100.00
4398;BME280;2213;49.720;7.296;2023-08-06T03:09:28;97005.78;;;15.76;100.00
4398;BME280;2213;49.720;7.296;2023-08-06T03:11:59;97008.72;;;15.80;100.00
4398;BME280;2213;49.720;7.296;2023-08-06T03:14:29;96997.69;;;15.83;100.00
4398;BME280;2213;49.720;7.296;2023-08-06T03:16:58;96999.53;;;15.82;100.00
4398;BME280;2213;49.720;7.296;2023-08-06T03:19:28;96992.06;;;15.74;100.00
4398;BME280;2213;49.720;7.296;2023-08-06T03:21:58;96996.28;;;15.75;100.00
4398;BME280;2213;49.720;7.296;2023-08-06T03:24:29;96991.25;;;15.74;100.00
4398;BME280;2213;49.720;7.296;2023-08-06T03:26:59;96987.81;;;15.73;100.00
4398;BME280;2213;49.720;7.296;2023-08-06T03:29:28;96991.25;;;15.74;100.00
4398;BME280;2213;49.720;7.296;2023-08-06T03:31:58;96992.28;;;15.73;100.00
4398;BME280;2213;49.720;7.296;2023-08-06T03:34:27;96994.47;;;15.76;100.00
4398;BME280;2213;49.720;7.296;2023-08-06T03:36:56;96989.13;;;15.71;100.00
4398;BME280;2213;49.720;7.296;2023-08-06T03:39:26;96990.72;;;15.72;100.00
4398;BME280;2213;49.720;7.296;2023-08-06T03:41:56;96983.31;;;15.69;100.00
4398;BME280;2213;49.720;7.296;2023-08-06T03:44:26;96986.25;;;15.72;100.00
4398;BME280;2213;49.720;7.296;2023-08-06T03:46:56;96989.19;;;15.76;100.00
4398;BME280;2213;49.720;7.296;2023-08-06T03:49:25;96989.59;;;15.68;100.00
4398;BME280;2213;49.720;7.296;2023-08-06T03:51:55;96985.88;;;15.64;100.00
4398;BME280;2213;49.720;7.296;2023-08-06T03:54:25;96987.47;;;15.65;100.00
4398;BME280;2213;49.720;7.296;2023-08-06T03:56:56;96993.34;;;15.72;100.00
4398;BME280;2213;49.720;7.296;2023-08-06T03:59:25;96987.19;;;15.66;100.00
4398;BME280;2213;49.720;7.296;2023-08-06T04:01:55;96986.91;;;15.63;100.00
4398;BME280;2213;49.720;7.296;2023-08-06T04:04:26;96980.50;;;15.58;100.00
4398;BME280;2213;49.720;7.296;2023-08-06T04:06:56;96974.94;;;15.55;100.00
4398;BME280;2213;49.720;7.296;2023-08-06T04:09:29;96978.13;;;15.57;100.00
4398;BME280;2213;49.720;7.296;2023-08-06T04:11:58;96986.09;;;15.62;100.00
4398;BME280;2213;49.720;7.296;2023-08-06T04:14:29;96983.72;;;15.60;100.00
4398;BME280;2213;49.720;7.296;2023-08-06T04:16:59;96987.97;;;15.62;100.00
4398;BME280;2213;49.720;7.296;2023-08-06T04:19:30;96991.13;;;15.64;100.00
4398;BME280;2213;49.720;7.296;2023-08-06T04:21:59;96988.38;;;15.53;100.00
4398;BME280;2213;49.720;7.296;2023-08-06T04:24:30;96991.81;;;15.54;100.00
4398;BME280;2213;49.720;7.296;2023-08-06T04:27:03;96987.88;;;15.56;100.00
4398;BME280;2213;49.720;7.296;2023-08-06T04:29:34;96992.31;;;15.51;100.00
4398;BME280;2213;49.720;7.296;2023-08-06T04:32:06;96987.84;;;15.51;100.00
4398;BME280;2213;49.720;7.296;2023-08-06T04:34:37;96993.66;;;15.53;100.00
4398;BME280;2213;49.720;7.296;2023-08-06T04:37:06;97000.66;;;15.48;100.00
4398;BME280;2213;49.720;7.296;2023-08-06T04:39:35;96988.88;;;15.50;100.00
4398;BME280;2213;49.720;7.296;2023-08-06T04:42:07;97000.44;;;15.49;100.00
4398;BME280;2213;49.720;7.296;2023-08-06T04:44:37;96995.75;;;15.51;100.00
4398;BME280;2213;49.720;7.296;2023-08-06T04:47:08;96994.13;;;15.50;100.00
4398;BME280;2213;49.720;7.296;2023-08-06T04:49:42;97002.03;;;15.50;100.00
4398;BME280;2213;49.720;7.296;2023-08-06T04:52:13;96997.81;;;15.49;100.00
4398;BME280;2213;49.720;7.296;2023-08-06T04:54:44;96997.22;;;15.47;100.00
4398;BME280;2213;49.720;7.296;2023-08-06T04:57:16;96997.81;;;15.49;100.00
4398;BME280;2213;49.720;7.296;2023-08-06T04:59:46;96990.47;;;15.51;100.00
4398;BME280;2213;49.720;7.296;2023-08-06T05:02:15;96993.66;;;15.53;100.00
4398;BME280;2213;49.720;7.296;2023-08-06T05:04:46;96998.91;;;15.53;100.00
4398;BME280;2213;49.720;7.296;2023-08-06T05:07:18;96998.91;;;15.53;100.00
4398;BME280;2213;49.720;7.296;2023-08-06T05:09:47;96996.81;;;15.55;100.00
4398;BME280;2213;49.720;7.296;2023-08-06T05:12:22;96996.28;;;15.53;100.00
4398;BME280;2213;49.720;7.296;2023-08-06T05:14:52;96996.81;;;15.55;100.00
4398;BME280;2213;49.720;7.296;2023-08-06T05:17:23;96998.44;;;15.56;100.00
4398;BME280;2213;49.720;7.296;2023-08-06T05:19:54;97000.25;;;15.56;100.00
4398;BME280;2213;49.720;7.296;2023-08-06T05:22:24;97007.38;;;15.55;100.00
4398;BME280;2213;49.720;7.296;2023-08-06T05:24:55;97003.69;;;15.56;100.00
4398;BME280;2213;49.720;7.296;2023-08-06T05:27:25;97004.72;;;15.55;100.00
4398;BME280;2213;49.720;7.296;2023-08-06T05:29:56;97003.69;;;15.56;100.00
4398;BME280;2213;49.720;7.296;2023-08-06T05:32:26;97005.47;;;15.51;100.00
4398;BME280;2213;49.720;7.296;2023-08-06T05:34:58;97004.19;;;15.53;100.00
4398;BME280;2213;49.720;7.296;2023-08-06T05:37:30;97011.56;;;15.51;100.00
4398;BME280;2213;49.720;7.296;2023-08-06T05:40:00;97006.75;;;15.48;100.00
4398;BME280;2213;49.720;7.296;2023-08-06T05:42:36;96999.94;;;15.52;100.00
4398;BME280;2213;49.720;7.296;2023-08-06T05:45:09;97006.81;;;15.53;100.00
4398;BME280;2213;49.720;7.296;2023-08-06T05:47:39;97003.16;;;15.54;100.00
4398;BME280;2213;49.720;7.296;2023-08-06T05:50:10;97003.69;;;15.56;100.00
4398;BME280;2213;49.720;7.296;2023-08-06T05:52:40;97009.59;;;15.64;100.00
4398;BME280;2213;49.720;7.296;2023-08-06T05:55:10;97004.53;;;15.62;100.00
4398;BME280;2213;49.720;7.296;2023-08-06T05:57:41;97009.50;;;15.58;100.00
4398;BME280;2213;49.720;7.296;2023-08-06T06:00:13;97009.59;;;15.64;100.00
4398;BME280;2213;49.720;7.296;2023-08-06T06:02:44;97007.97;;;15.63;100.00
4398;BME280;2213;49.720;7.296;2023-08-06T06:05:15;97012.75;;;15.66;100.00
4398;BME280;2213;49.720;7.296;2023-08-06T06:07:45;97021.78;;;15.70;100.00
4398;BME280;2213;49.720;7.296;2023-08-06T06:10:15;97026.00;;;15.71;100.00
4398;BME280;2213;49.720;7.296;2023-08-06T06:12:51;97027.63;;;15.72;100.00
4398;BME280;2213;49.720;7.296;2023-08-06T06:15:23;97022.97;;;15.79;100.00
4398;BME280;2213;49.720;7.296;2023-08-06T06:17:53;97018.00;;;15.82;100.00
4398;BME280;2213;49.720;7.296;2023-08-06T06:20:23;97017.50;;;15.85;100.00
4398;BME280;2213;49.720;7.296;2023-08-06T06:22:55;97024.91;;;15.88;100.00
4398;BME280;2213;49.720;7.296;2023-08-06T06:25:25;97027.06;;;15.91;100.00
4398;BME280;2213;49.720;7.296;2023-08-06T06:27:59;97021.88;;;15.96;100.00
4398;BME280;2213;49.720;7.296;2023-08-06T06:30:29;97026.69;;;16.04;100.00
4398;BME280;2213;49.720;7.296;2023-08-06T06:32:59;97029.63;;;16.08;100.00
4398;BME280;2213;49.720;7.296;2023-08-06T06:35:29;97027.56;;;16.10;100.00
4398;BME280;2213;49.720;7.296;2023-08-06T06:38:00;97031.28;;;16.14;100.00
4398;BME280;2213;49.720;7.296;2023-08-06T06:40:30;97027.06;;;16.13;100.00
4398;BME280;2213;49.720;7.296;2023-08-06T06:43:02;97025.03;;;16.20;100.00
4398;BME280;2213;49.720;7.296;2023-08-06T06:45:32;97022.44;;;16.25;100.00
4398;BME280;2213;49.720;7.296;2023-08-06T06:48:02;97023.00;;;16.27;100.00
4398;BME280;2213;49.720;7.296;2023-08-06T06:50:32;97029.31;;;16.26;100.00
4398;BME280;2213;49.720;7.296;2023-08-06T06:53:01;97025.63;;;16.27;100.00
4398;BME280;2213;49.720;7.296;2023-08-06T06:55:31;97027.19;;;16.28;100.00
4398;BME280;2213;49.720;7.296;2023-08-06T06:58:03;97026.66;;;16.26;100.00
4398;BME280;2213;49.720;7.296;2023-08-06T07:00:32;97030.59;;;16.24;100.00
4398;BME280;2213;49.720;7.296;2023-08-06T07:03:04;97030.00;;;16.17;100.00
4398;BME280;2213;49.720;7.296;2023-08-06T07:05:33;97028.94;;;16.18;100.00
4398;BME280;2213;49.720;7.296;2023-08-06T07:08:04;97029.50;;;16.20;100.00
4398;BME280;2213;49.720;7.296;2023-08-06T07:10:35;97028.69;;;16.19;100.00
4398;BME280;2213;49.720;7.296;2023-08-06T07:13:06;97035.31;;;16.22;100.00
4398;BME280;2213;49.720;7.296;2023-08-06T07:15:37;97029.53;;;16.25;100.00
4398;BME280;2213;49.720;7.296;2023-08-06T07:18:08;97036.19;;;16.27;100.00
4398;BME280;2213;49.720;7.296;2023-08-06T07:20:38;97037.75;;;16.28;100.00
4398;BME280;2213;49.720;7.296;2023-08-06T07:23:08;97040.41;;;16.28;100.00
4398;BME280;2213;49.720;7.296;2023-08-06T07:25:39;97029.59;;;16.30;100.00
4398;BME280;2213;49.720;7.296;2023-08-06T07:28:11;97035.38;;;16.27;100.00
4398;BME280;2213;49.720;7.296;2023-08-06T07:30:40;97036.50;;;16.31;100.00
4398;BME280;2213;49.720;7.296;2023-08-06T07:33:10;97035.69;;;16.30;100.00
4398;BME280;2213;49.720;7.296;2023-08-06T07:35:39;97041.75;;;16.31;100.00
4398;BME280;2213;49.720;7.296;2023-08-06T07:38:08;97035.19;;;16.33;100.00
4398;BME280;2213;49.720;7.296;2023-08-06T07:40:38;97035.72;;;16.35;100.00
4398;BME280;2213;49.720;7.296;2023-08-06T07:43:09;97043.22;;;16.22;100.00
4398;BME280;2213;49.720;7.296;2023-08-06T07:45:40;97036.19;;;16.27;100.00
4398;BME280;2213;49.720;7.296;2023-08-06T07:48:09;97037.28;;;16.31;100.00
4398;BME280;2213;49.720;7.296;2023-08-06T07:50:39;97035.22;;;16.38;100.00
4398;BME280;2213;49.720;7.296;2023-08-06T07:53:10;97039.16;;;16.36;100.00
4398;BME280;2213;49.720;7.296;2023-08-06T07:55:40;97041.38;;;16.44;100.00
4398;BME280;2213;49.720;7.296;2023-08-06T07:58:14;97045.34;;;16.46;100.00
4398;BME280;2213;49.720;7.296;2023-08-06T08:00:44;97042.69;;;16.46;100.00
4398;BME280;2213;49.720;7.296;2023-08-06T08:03:15;97047.47;;;16.49;100.00
4398;BME280;2213;49.720;7.296;2023-08-06T08:05:47;97053.53;;;16.45;100.00
4398;BME280;2213;49.720;7.296;2023-08-06T08:08:17;97056.69;;;16.47;100.00
4398;BME280;2213;49.720;7.296;2023-08-06T08:10:47;97056.34;;;16.38;100.00
4398;BME280;2213;49.720;7.296;2023-08-06T08:13:19;97060.16;;;16.26;100.00
4398;BME280;2213;49.720;7.296;2023-08-06T08:15:49;97060.44;;;16.24;100.00
4398;BME280;2213;49.720;7.296;2023-08-06T08:18:19;97063.00;;;16.19;100.00
4398;BME280;2213;49.720;7.296;2023-08-06T08:20:50;97053.47;;;16.18;100.00
4398;BME280;2213;49.720;7.296;2023-08-06T08:23:20;97075.16;;;16.20;100.00
4398;BME280;2213;49.720;7.296;2023-08-06T08:25:49;97064.34;;;16.22;100.00
4398;BME280;2213;49.720;7.296;2023-08-06T08:28:21;97067.28;;;16.25;100.00
4398;BME280;2213;49.720;7.296;2023-08-06T08:30:50;97071.44;;;16.21;100.00
4398;BME280;2213;49.720;7.296;2023-08-06T08:33:22;97075.38;;;16.19;100.00
4398;BME280;2213;49.720;7.296;2023-08-06T08:35:54;97066.13;;;16.16;100.00
4398;BME280;2213;49.720;7.296;2023-08-06T08:38:29;97071.09;;;16.13;100.00
4398;BME280;2213;49.720;7.296;2023-08-06T08:40:59;97072.84;;;16.07;100.00
4398;BME280;2213;49.720;7.296;2023-08-06T08:43:31;97083.91;;;16.04;100.00
4398;BME280;2213;49.720;7.296;2023-08-06T08:46:02;97079.63;;;15.98;100.00
4398;BME280;2213;49.720;7.296;2023-08-06T08:48:33;97085.63;;;15.93;100.00
4398;BME280;2213;49.720;7.296;2023-08-06T08:51:04;97087.94;;;15.90;100.00
4398;BME280;2213;49.720;7.296;2023-08-06T08:53:35;97098.19;;;15.86;100.00
4398;BME280;2213;49.720;7.296;2023-08-06T08:56:08;97102.53;;;15.76;100.00
4398;BME280;2213;49.720;7.296;2023-08-06T08:58:39;97108.22;;;15.68;100.00
4398;BME280;2213;49.720;7.296;2023-08-06T09:01:09;97107.56;;;15.77;100.00
4398;BME280;2213;49.720;7.296;2023-08-06T09:03:41;97129.38;;;15.73;100.00
4398;BME280;2213;49.720;7.296;2023-08-06T09:06:14;97128.72;;;15.66;100.00
4398;BME280;2213;49.720;7.296;2023-08-06T09:08:54;97137.53;;;15.71;100.00
4398;BME280;2213;49.720;7.296;2023-08-06T09:11:27;97136.72;;;15.71;100.00
4398;BME280;2213;49.720;7.296;2023-08-06T09:13:58;97145.50;;;15.59;100.00
4398;BME280;2213;49.720;7.296;2023-08-06T09:16:30;97141.59;;;15.62;100.00
4398;BME280;2213;49.720;7.296;2023-08-06T09:19:07;97148.56;;;15.68;100.00
4398;BME280;2213;49.720;7.296;2023-08-06T09:21:37;97146.72;;;15.69;100.00
4398;BME280;2213;49.720;7.296;2023-08-06T09:24:10;97150.31;;;15.63;100.00
4398;BME280;2213;49.720;7.296;2023-08-06T09:26:41;97154.63;;;15.69;100.00
4398;BME280;2213;49.720;7.296;2023-08-06T09:29:13;97166.91;;;15.80;100.00
4398;BME280;2213;49.720;7.296;2023-08-06T09:31:44;97171.22;;;15.86;100.00
4398;BME280;2213;49.720;7.296;2023-08-06T09:34:16;97165.47;;;15.89;100.00
4398;BME280;2213;49.720;7.296;2023-08-06T09:36:48;97177.19;;;15.98;100.00
4398;BME280;2213;49.720;7.296;2023-08-06T09:39:20;97178.06;;;16.03;100.00
4398;BME280;2213;49.720;7.296;2023-08-06T09:41:57;97182.13;;;16.11;100.00
4398;BME280;2213;49.720;7.296;2023-08-06T09:44:32;97192.44;;;16.13;100.00
4398;BME280;2213;49.720;7.296;2023-08-06T09:47:03;97194.66;;;16.21;100.00
4398;BME280;2213;49.720;7.296;2023-08-06T09:49:43;97199.69;;;16.22;100.00
4398;BME280;2213;49.720;7.296;2023-08-06T09:52:14;97203.84;;;16.18;100.00
4398;BME280;2213;49.720;7.296;2023-08-06T09:54:47;97203.53;;;16.15;100.00
4398;BME280;2213;49.720;7.296;2023-08-06T09:57:18;97217.66;;;16.25;100.00
4398;BME280;2213;49.720;7.296;2023-08-06T09:59:49;97212.38;;;16.25;100.00
4398;BME280;2213;49.720;7.296;2023-08-06T10:02:24;97221.09;;;16.26;100.00
4398;BME280;2213;49.720;7.296;2023-08-06T10:04:57;97220.78;;;16.22;100.00
4398;BME280;2213;49.720;7.296;2023-08-06T10:07:27;97235.63;;;16.06;100.00
4398;BME280;2213;49.720;7.296;2023-08-06T10:09:59;97233.38;;;15.98;100.00
4398;BME280;2213;49.720;7.296;2023-08-06T10:12:34;97235.22;;;15.98;100.00
4398;BME280;2213;49.720;7.296;2023-08-06T10:15:12;97237.34;;;16.01;100.00
4398;BME280;2213;49.720;7.296;2023-08-06T10:17:46;97245.69;;;15.93;100.00
4398;BME280;2213;49.720;7.296;2023-08-06T10:20:18;97249.44;;;15.97;100.00
4398;BME280;2213;49.720;7.296;2023-08-06T10:23:02;97261.66;;;16.03;100.00
4398;BME280;2213;49.720;7.296;2023-08-06T10:25:32;97261.25;;;16.11;100.00
4398;BME280;2213;49.720;7.296;2023-08-06T10:28:08;97271.88;;;16.16;100.00
4398;BME280;2213;49.720;7.296;2023-08-06T10:30:45;97273.06;;;16.25;100.00
4398;BME280;2213;49.720;7.296;2023-08-06T10:33:14;97262.59;;;16.30;100.00
4398;BME280;2213;49.720;7.296;2023-08-06T10:35:46;97279.47;;;16.29;100.00
4398;BME280;2213;49.720;7.296;2023-08-06T10:38:20;97287.78;;;16.38;100.00
4398;BME280;2213;49.720;7.296;2023-08-06T10:40:52;97290.72;;;16.41;100.00
4398;BME280;2213;49.720;7.296;2023-08-06T10:43:33;97291.81;;;16.45;100.00
4398;BME280;2213;49.720;7.296;2023-08-06T10:46:13;97299.19;;;16.43;100.00
4398;BME280;2213;49.720;7.296;2023-08-06T10:48:50;97307.19;;;16.48;100.00
4398;BME280;2213;49.720;7.296;2023-08-06T10:51:19;97306.09;;;16.44;100.00
4398;BME280;2213;49.720;7.296;2023-08-06T10:53:50;97316.47;;;16.51;100.00
4398;BME280;2213;49.720;7.296;2023-08-06T10:56:21;97317.19;;;16.46;100.00
4398;BME280;2213;49.720;7.296;2023-08-06T10:58:56;97318.06;;;16.52;100.00
4398;BME280;2213;49.720;7.296;2023-08-06T11:01:29;97315.84;;;16.60;100.00
4398;BME280;2213;49.720;7.296;2023-08-06T11:04:03;97332.16;;;16.57;100.00
4398;BME280;2213;49.720;7.296;2023-08-06T11:06:33;97324.78;;;16.59;100.00
4398;BME280;2213;49.720;7.296;2023-08-06T11:09:04;97316.94;;;16.65;100.00
4398;BME280;2213;49.720;7.296;2023-08-06T11:11:34;97328.22;;;16.60;100.00
4398;BME280;2213;49.720;7.296;2023-08-06T11:14:05;97330.38;;;16.63;100.00
4398;BME280;2213;49.720;7.296;2023-08-06T11:16:36;97327.56;;;16.70;100.00
4398;BME280;2213;49.720;7.296;2023-08-06T11:19:08;97334.63;;;16.64;100.00
4398;BME280;2213;49.720;7.296;2023-08-06T11:21:40;97334.22;;;16.72;100.00
4398;BME280;2213;49.720;7.296;2023-08-06T11:24:13;97347.75;;;16.76;100.00
4398;BME280;2213;49.720;7.296;2023-08-06T11:26:43;97349.09;;;16.78;100.00
4398;BME280;2213;49.720;7.296;2023-08-06T11:29:11;97336.09;;;16.77;100.00
4398;BME280;2213;49.720;7.296;2023-08-06T11:31:43;97347.97;;;16.74;100.00
4398;BME280;2213;49.720;7.296;2023-08-06T11:34:12;97347.59;;;16.66;100.00
4398;BME280;2213;49.720;7.296;2023-08-06T11:36:42;97358.69;;;16.68;100.00
4398;BME280;2213;49.720;7.296;2023-08-06T11:39:11;97361.75;;;16.59;100.00
4398;BME280;2213;49.720;7.296;2023-08-06T11:41:41;97360.66;;;16.55;100.00
4398;BME280;2213;49.720;7.296;2023-08-06T11:44:12;97359.38;;;16.58;100.00
4398;BME280;2213;49.720;7.296;2023-08-06T11:46:53;97367.81;;;16.60;100.00
4398;BME280;2213;49.720;7.296;2023-08-06T11:49:39;97375.25;;;16.63;100.00
4398;BME280;2213;49.720;7.296;2023-08-06T11:52:16;97383.81;;;16.53;100.00
4398;BME280;2213;49.720;7.296;2023-08-06T11:54:59;97378.47;;;16.48;100.00
4398;BME280;2213;49.720;7.296;2023-08-06T11:57:29;97380.47;;;16.58;100.00
4398;BME280;2213;49.720;7.296;2023-08-06T12:00:03;97390.25;;;16.57;100.00
4398;BME280;2213;49.720;7.296;2023-08-06T12:02:35;97396.94;;;16.48;100.00
4398;BME280;2213;49.720;7.296;2023-08-06T12:05:13;97408.38;;;16.54;100.00
4398;BME280;2213;49.720;7.296;2023-08-06T12:07:45;97412.63;;;16.55;100.00
4398;BME280;2213;49.720;7.296;2023-08-06T12:10:16;97415.66;;;16.64;100.00
4398;BME280;2213;49.720;7.296;2023-08-06T12:12:47;97412.00;;;16.65;100.00
4398;BME280;2213;49.720;7.296;2023-08-06T12:15:17;97401.50;;;16.70;100.00
4398;BME280;2213;49.720;7.296;2023-08-06T12:17:49;97403.28;;;16.64;100.00
4398;BME280;2213;49.720;7.296;2023-08-06T12:20:19;97401.50;;;16.70;100.00
4398;BME280;2213;49.720;7.296;2023-08-06T12:22:49;97389.72;;;16.77;100.00
4398;BME280;2213;49.720;7.296;2023-08-06T12:25:18;97402.47;;;16.64;100.00
4398;BME280;2213;49.720;7.296;2023-08-06T12:27:47;97396.06;;;16.59;100.00
4398;BME280;2213;49.720;7.296;2023-08-06T12:30:17;97409.09;;;16.66;100.00
4398;BME280;2213;49.720;7.296;2023-08-06T12:32:47;97417.09;;;16.54;100.00
4398;BME280;2213;49.720;7.296;2023-08-06T12:35:20;97422.47;;;16.59;100.00
4398;BME280;2213;49.720;7.296;2023-08-06T12:37:50;97409.09;;;16.66;100.00
4398;BME280;2213;49.720;7.296;2023-08-06T12:40:23;97405.03;;;16.58;100.00
4398;BME280;2213;49.720;7.296;2023-08-06T12:43:04;97416.69;;;16.63;100.00
4398;BME280;2213;49.720;7.296;2023-08-06T12:45:35;97423.84;;;16.62;100.00
4398;BME280;2213;49.720;7.296;2023-08-06T12:48:06;97415.50;;;16.70;100.00
4398;BME280;2213;49.720;7.296;2023-08-06T12:50:36;97411.41;;;16.63;100.00
4398;BME280;2213;49.720;7.296;2023-08-06T12:53:06;97419.34;;;16.63;100.00
4398;BME280;2213;49.720;7.296;2023-08-06T12:55:37;97430.50;;;16.53;100.00
4398;BME280;2213;49.720;7.296;2023-08-06T12:58:08;97433.50;;;16.56;100.00
4398;BME280;2213;49.720;7.296;2023-08-06T13:00:38;97435.19;;;16.63;100.00
4398;BME280;2213;49.720;7.296;2023-08-06T13:03:09;97441.69;;;16.72;100.00
4398;BME280;2213;49.720;7.296;2023-08-06T13:05:38;97443.84;;;16.75;100.00
4398;BME280;2213;49.720;7.296;2023-08-06T13:08:07;97430.47;;;16.81;100.00
4398;BME280;2213;49.720;7.296;2023-08-06T13:10:37;97458.06;;;16.74;100.00
4398;BME280;2213;49.720;7.296;2023-08-06T13:13:07;97451.44;;;16.71;100.00
4398;BME280;2213;49.720;7.296;2023-08-06T13:15:37;97458.06;;;16.74;100.00
4398;BME280;2213;49.720;7.296;2023-08-06T13:18:08;97449.22;;;16.80;100.00
4398;BME280;2213;49.720;7.296;2023-08-06T13:20:39;97452.06;;;16.78;100.00
4398;BME280;2213;49.720;7.296;2023-08-06T13:23:09;97451.84;;;16.80;100.00
4398;BME280;2213;49.720;7.296;2023-08-06T13:25:38;97450.56;;;16.82;100.00
4398;BME280;2213;49.720;7.296;2023-08-06T13:28:08;97456.16;;;16.86;100.00
4398;BME280;2213;49.720;7.296;2023-08-06T13:30:37;97454.97;;;16.93;100.00